sensor_id;sensor_type;location;lat;lon;timestamp;temperature;humidity
23815;DHT22;12088;53.078;8.720;2023-04-01T00:01:13;9.80;99.90
23815;DHT22;12088;53.078;8.720;2023-04-01T00:03:40;9.80;99.90
23815;DHT22;12088;53.078;8.720;2023-04-01T00:06:05;9.90;99.90
23815;DHT22;12088;53.078;8.720;2023-04-01T00:08:31;9.90;99.90
23815;DHT22;12088;53.078;8.720;2023-04-01T00:10:57;9.90;99.90
23815;DHT22;12088;53.078;8.720;2023-04-01T00:13:26;9.90;99.90
23815;DHT22;12088;53.078;8.720;2023-04-01T00:15:53;9.90;99.90
23815;DHT22;12088;53.078;8.720;2023-04-01T00:18:18;9.90;99.90
23815;DHT22;12088;53.078;8.720;2023-04-01T00:20:48;10.00;99.90
23815;DHT22;12088;53.078;8.720;2023-04-01T00:23:15;9.90;99.90
23815;DHT22;12088;53.078;8.720;2023-04-01T00:25:41;9.90;99.90
23815;DHT22;12088;53.078;8.720;2023-04-01T00:28:07;9.80;99.90
23815;DHT22;12088;53.078;8.720;2023-04-01T00:30:32;9.80;99.90
23815;DHT22;12088;53.078;8.720;2023-04-01T00:32:58;9.90;99.90
23815;DHT22;12088;53.078;8.720;2023-04-01T00:35:23;9.90;99.90
23815;DHT22;12088;53.078;8.720;2023-04-01T00:37:49;9.90;99.90
23815;DHT22;12088;53.078;8.720;2023-04-01T00:40:34;9.90;99.90
23815;DHT22;12088;53.078;8.720;2023-04-01T00:43:00;9.80;99.90
23815;DHT22;12088;53.078;8.720;2023-04-01T00:45:41;9.80;99.90
23815;DHT22;12088;53.078;8.720;2023-04-01T00:48:14;9.80;99.90
23815;DHT22;12088;53.078;8.720;2023-04-01T00:50:42;9.90;99.90
23815;DHT22;12088;53.078;8.720;2023-04-01T00:53:12;9.90;99.90
23815;DHT22;12088;53.078;8.720;2023-04-01T00:55:41;9.90;99.90
23815;DHT22;12088;53.078;8.720;2023-04-01T00:58:12;9.80;99.90
23815;DHT22;12088;53.078;8.720;2023-04-01T01:00:39;9.80;99.90
23815;DHT22;12088;53.078;8.720;2023-04-01T01:03:04;9.90;99.90
23815;DHT22;12088;53.078;8.720;2023-04-01T01:05:44;9.80;99.90
23815;DHT22;12088;53.078;8.720;2023-04-01T01:11:11;9.90;99.90
23815;DHT22;12088;53.078;8.720;2023-04-01T01:14:07;9.80;99.90
23815;DHT22;12088;53.078;8.720;2023-04-01T01:16:42;9.90;99.90
23815;DHT22;12088;53.078;8.720;2023-04-01T01:19:30;9.90;99.90
23815;DHT22;12088;53.078;8.720;2023-04-01T01:22:19;9.90;99.90
23815;DHT22;12088;53.078;8.720;2023-04-01T01:25:29;9.90;99.90
23815;DHT22;12088;53.078;8.720;2023-04-01T01:28:31;9.90;99.90
23815;DHT22;12088;53.078;8.720;2023-04-01T01:31:24;9.90;99.90
23815;DHT22;12088;53.078;8.720;2023-04-01T01:34:15;9.90;99.90
23815;DHT22;12088;53.078;8.720;2023-04-01T01:36:48;9.90;99.90
23815;DHT22;12088;53.078;8.720;2023-04-01T01:39:16;9.90;99.90
23815;DHT22;12088;53.078;8.720;2023-04-01T01:41:43;9.80;99.90
23815;DHT22;12088;53.078;8.720;2023-04-01T01:44:12;9.80;99.90
23815;DHT22;12088;53.078;8.720;2023-04-01T01:46:39;9.90;99.90
23815;DHT22;12088;53.078;8.720;2023-04-01T01:49:07;9.80;99.90
23815;DHT22;12088;53.078;8.720;2023-04-01T01:51:34;9.90;99.90
23815;DHT22;12088;53.078;8.720;2023-04-01T01:54:00;9.80;99.90
23815;DHT22;12088;53.078;8.720;2023-04-01T01:56:27;9.80;99.90
23815;DHT22;12088;53.078;8.720;2023-04-01T01:58:58;9.80;99.90
23815;DHT22;12088;53.078;8.720;2023-04-01T02:01:29;9.80;99.90
23815;DHT22;12088;53.078;8.720;2023-04-01T02:03:57;9.90;99.90
23815;DHT22;12088;53.078;8.720;2023-04-01T02:06:26;9.90;99.90
23815;DHT22;12088;53.078;8.720;2023-04-01T02:08:56;9.90;99.90
23815;DHT22;12088;53.078;8.720;2023-04-01T02:11:28;9.90;99.90
23815;DHT22;12088;53.078;8.720;2023-04-01T02:13:58;9.80;99.90
23815;DHT22;12088;53.078;8.720;2023-04-01T02:17:02;9.80;99.90
23815;DHT22;12088;53.078;8.720;2023-04-01T02:19:37;9.80;99.90
23815;DHT22;12088;53.078;8.720;2023-04-01T02:22:06;9.80;99.90
23815;DHT22;12088;53.078;8.720;2023-04-01T02:24:35;9.80;99.90
23815;DHT22;12088;53.078;8.720;2023-04-01T02:27:01;9.80;99.90
23815;DHT22;12088;53.078;8.720;2023-04-01T02:29:27;9.80;99.90
23815;DHT22;12088;53.078;8.720;2023-04-01T02:31:53;9.80;99.90
23815;DHT22;12088;53.078;8.720;2023-04-01T02:34:21;9.80;99.90
23815;DHT22;12088;53.078;8.720;2023-04-01T02:36:49;9.80;99.90
23815;DHT22;12088;53.078;8.720;2023-04-01T02:39:15;9.70;99.90
23815;DHT22;12088;53.078;8.720;2023-04-01T02:41:42;9.80;99.90
23815;DHT22;12088;53.078;8.720;2023-04-01T02:44:08;9.80;99.90
23815;DHT22;12088;53.078;8.720;2023-04-01T02:46:35;9.70;99.90
23815;DHT22;12088;53.078;8.720;2023-04-01T02:49:01;9.80;99.90
23815;DHT22;12088;53.078;8.720;2023-04-01T02:51:26;9.70;99.90
23815;DHT22;12088;53.078;8.720;2023-04-01T02:53:52;9.70;99.90
23815;DHT22;12088;53.078;8.720;2023-04-01T02:56:17;9.70;99.90
23815;DHT22;12088;53.078;8.720;2023-04-01T02:58:44;9.70;99.90
23815;DHT22;12088;53.078;8.720;2023-04-01T03:01:10;9.70;99.90
23815;DHT22;12088;53.078;8.720;2023-04-01T03:03:36;9.70;99.90
23815;DHT22;12088;53.078;8.720;2023-04-01T03:06:09;9.70;99.90
23815;DHT22;12088;53.078;8.720;2023-04-01T03:08:35;9.70;99.90
23815;DHT22;12088;53.078;8.720;2023-04-01T03:11:00;9.70;99.90
23815;DHT22;12088;53.078;8.720;2023-04-01T03:13:26;9.60;99.90
23815;DHT22;12088;53.078;8.720;2023-04-01T03:15:53;9.70;99.90
23815;DHT22;12088;53.078;8.720;2023-04-01T03:18:19;9.70;99.90
23815;DHT22;12088;53.078;8.720;2023-04-01T03:20:44;9.60;99.90
23815;DHT22;12088;53.078;8.720;2023-04-01T03:23:10;9.60;99.90
23815;DHT22;12088;53.078;8.720;2023-04-01T03:25:36;9.70;99.90
23815;DHT22;12088;53.078;8.720;2023-04-01T03:28:02;9.70;99.90
23815;DHT22;12088;53.078;8.720;2023-04-01T03:30:27;9.60;99.90
23815;DHT22;12088;53.078;8.720;2023-04-01T03:32:55;9.60;99.90
23815;DHT22;12088;53.078;8.720;2023-04-01T03:35:20;9.60;99.90
23815;DHT22;12088;53.078;8.720;2023-04-01T03:37:46;9.60;99.90
23815;DHT22;12088;53.078;8.720;2023-04-01T03:40:12;9.60;99.90
23815;DHT22;12088;53.078;8.720;2023-04-01T03:42:37;9.60;99.90
23815;DHT22;12088;53.078;8.720;2023-04-01T03:45:04;9.60;99.90
23815;DHT22;12088;53.078;8.720;2023-04-01T03:47:30;9.60;99.90
23815;DHT22;12088;53.078;8.720;2023-04-01T03:49:55;9.50;99.90
23815;DHT22;12088;53.078;8.720;2023-04-01T03:52:21;9.50;99.90
23815;DHT22;12088;53.078;8.720;2023-04-01T03:54:47;9.50;99.90
23815;DHT22;12088;53.078;8.720;2023-04-01T03:57:12;9.50;99.90
23815;DHT22;12088;53.078;8.720;2023-04-01T03:59:38;9.50;99.90
23815;DHT22;12088;53.078;8.720;2023-04-01T04:02:03;9.50;99.90
23815;DHT22;12088;53.078;8.720;2023-04-01T04:04:29;9.50;99.90
23815;DHT22;12088;53.078;8.720;2023-04-01T04:06:55;9.50;99.90
23815;DHT22;12088;53.078;8.720;2023-04-01T04:09:20;9.50;99.90
23815;DHT22;12088;53.078;8.720;2023-04-01T04:11:46;9.50;99.90
23815;DHT22;12088;53.078;8.720;2023-04-01T04:14:11;9.60;99.90
23815;DHT22;12088;53.078;8.720;2023-04-01T04:16:37;9.50;99.90
23815;DHT22;12088;53.078;8.720;2023-04-01T04:19:03;9.50;99.90
23815;DHT22;12088;53.078;8.720;2023-04-01T04:21:29;9.60;99.90
23815;DHT22;12088;53.078;8.720;2023-04-01T04:23:55;9.50;99.90
23815;DHT22;12088;53.078;8.720;2023-04-01T04:26:20;9.50;99.90
23815;DHT22;12088;53.078;8.720;2023-04-01T04:28:46;9.50;99.90
23815;DHT22;12088;53.078;8.720;2023-04-01T04:31:12;9.50;99.90
23815;DHT22;12088;53.078;8.720;2023-04-01T04:33:43;9.50;99.90
23815;DHT22;12088;53.078;8.720;2023-04-01T04:36:08;9.50;99.90
23815;DHT22;12088;53.078;8.720;2023-04-01T04:38:34;9.50;99.90
23815;DHT22;12088;53.078;8.720;2023-04-01T04:40:59;9.50;99.90
23815;DHT22;12088;53.078;8.720;2023-04-01T04:43:25;9.50;99.90
23815;DHT22;12088;53.078;8.720;2023-04-01T04:45:51;9.50;99.90
23815;DHT22;12088;53.078;8.720;2023-04-01T04:48:17;9.50;99.90
23815;DHT22;12088;53.078;8.720;2023-04-01T04:50:45;9.50;99.90
23815;DHT22;12088;53.078;8.720;2023-04-01T04:53:12;9.50;99.90
23815;DHT22;12088;53.078;8.720;2023-04-01T04:55:42;9.50;99.90
23815;DHT22;12088;53.078;8.720;2023-04-01T04:58:07;9.50;99.90
23815;DHT22;12088;53.078;8.720;2023-04-01T05:00:33;9.50;99.90
23815;DHT22;12088;53.078;8.720;2023-04-01T05:02:58;9.50;99.90
23815;DHT22;12088;53.078;8.720;2023-04-01T05:05:24;9.50;99.90
23815;DHT22;12088;53.078;8.720;2023-04-01T05:07:49;9.50;99.90
23815;DHT22;12088;53.078;8.720;2023-04-01T05:10:15;9.50;99.90
23815;DHT22;12088;53.078;8.720;2023-04-01T05:12:40;9.50;99.90
23815;DHT22;12088;53.078;8.720;2023-04-01T05:15:06;9.50;99.90
23815;DHT22;12088;53.078;8.720;2023-04-01T05:17:32;9.50;99.90
23815;DHT22;12088;53.078;8.720;2023-04-01T05:19:58;9.50;99.90
23815;DHT22;12088;53.078;8.720;2023-04-01T05:22:23;9.50;99.90
23815;DHT22;12088;53.078;8.720;2023-04-01T05:24:49;9.50;99.90
23815;DHT22;12088;53.078;8.720;2023-04-01T05:27:15;9.50;99.90
23815;DHT22;12088;53.078;8.720;2023-04-01T05:29:40;9.50;99.90
23815;DHT22;12088;53.078;8.720;2023-04-01T05:32:06;9.50;99.90
23815;DHT22;12088;53.078;8.720;2023-04-01T05:34:31;9.50;99.90
23815;DHT22;12088;53.078;8.720;2023-04-01T05:36:57;9.50;99.90
23815;DHT22;12088;53.078;8.720;2023-04-01T05:39:22;9.50;99.90
23815;DHT22;12088;53.078;8.720;2023-04-01T05:41:48;9.60;99.90
23815;DHT22;12088;53.078;8.720;2023-04-01T05:44:14;9.60;99.90
23815;DHT22;12088;53.078;8.720;2023-04-01T05:46:40;9.60;99.90
23815;DHT22;12088;53.078;8.720;2023-04-01T05:49:06;9.60;99.90
23815;DHT22;12088;53.078;8.720;2023-04-01T05:51:31;9.70;99.90
23815;DHT22;12088;53.078;8.720;2023-04-01T05:53:57;9.70;99.90
23815;DHT22;12088;53.078;8.720;2023-04-01T05:56:22;9.70;99.90
23815;DHT22;12088;53.078;8.720;2023-04-01T05:58:51;9.70;99.90
23815;DHT22;12088;53.078;8.720;2023-04-01T06:01:18;9.70;99.90
23815;DHT22;12088;53.078;8.720;2023-04-01T06:03:44;9.70;99.90
23815;DHT22;12088;53.078;8.720;2023-04-01T06:06:15;9.70;99.90
23815;DHT22;12088;53.078;8.720;2023-04-01T06:08:42;9.70;99.90
23815;DHT22;12088;53.078;8.720;2023-04-01T06:19:51;9.70;99.90
23815;DHT22;12088;53.078;8.720;2023-04-01T06:25:17;9.80;99.90
23815;DHT22;12088;53.078;8.720;2023-04-01T06:27:58;9.70;99.90
23815;DHT22;12088;53.078;8.720;2023-04-01T06:30:42;9.70;99.90
23815;DHT22;12088;53.078;8.720;2023-04-01T06:36:21;9.70;99.90
23815;DHT22;12088;53.078;8.720;2023-04-01T06:44:35;9.80;99.90
23815;DHT22;12088;53.078;8.720;2023-04-01T06:47:32;9.80;99.90
23815;DHT22;12088;53.078;8.720;2023-04-01T06:50:21;9.80;99.90
23815;DHT22;12088;53.078;8.720;2023-04-01T06:53:05;9.80;99.90
23815;DHT22;12088;53.078;8.720;2023-04-01T07:01:14;9.90;99.90
23815;DHT22;12088;53.078;8.720;2023-04-01T07:03:55;9.90;99.90
23815;DHT22;12088;53.078;8.720;2023-04-01T07:06:43;10.00;99.90
23815;DHT22;12088;53.078;8.720;2023-04-01T07:09:15;10.00;99.90
23815;DHT22;12088;53.078;8.720;2023-04-01T07:11:42;10.00;99.90
23815;DHT22;12088;53.078;8.720;2023-04-01T07:14:31;10.10;99.90
23815;DHT22;12088;53.078;8.720;2023-04-01T07:17:12;10.10;99.90
23815;DHT22;12088;53.078;8.720;2023-04-01T07:20:02;10.20;99.90
23815;DHT22;12088;53.078;8.720;2023-04-01T07:22:40;10.30;99.90
23815;DHT22;12088;53.078;8.720;2023-04-01T07:25:18;10.20;99.90
23815;DHT22;12088;53.078;8.720;2023-04-01T07:27:46;10.20;99.90
23815;DHT22;12088;53.078;8.720;2023-04-01T07:30:16;10.10;99.90
23815;DHT22;12088;53.078;8.720;2023-04-01T07:32:55;10.10;99.90
23815;DHT22;12088;53.078;8.720;2023-04-01T07:35:37;10.10;99.90
23815;DHT22;12088;53.078;8.720;2023-04-01T07:38:31;10.20;99.90
23815;DHT22;12088;53.078;8.720;2023-04-01T07:52:53;10.20;99.90
23815;DHT22;12088;53.078;8.720;2023-04-01T07:58:03;10.30;99.90
23815;DHT22;12088;53.078;8.720;2023-04-01T08:00:44;10.30;99.90
23815;DHT22;12088;53.078;8.720;2023-04-01T08:08:51;10.50;99.90
23815;DHT22;12088;53.078;8.720;2023-04-01T08:14:15;10.60;99.90
23815;DHT22;12088;53.078;8.720;2023-04-01T08:17:14;10.70;99.90
23815;DHT22;12088;53.078;8.720;2023-04-01T08:20:14;10.80;99.90
23815;DHT22;12088;53.078;8.720;2023-04-01T08:22:44;10.80;99.90
23815;DHT22;12088;53.078;8.720;2023-04-01T08:25:17;10.90;99.90
23815;DHT22;12088;53.078;8.720;2023-04-01T08:27:48;10.90;99.90
23815;DHT22;12088;53.078;8.720;2023-04-01T08:30:25;10.90;99.90
23815;DHT22;12088;53.078;8.720;2023-04-01T08:33:13;11.20;99.90
23815;DHT22;12088;53.078;8.720;2023-04-01T08:38:24;11.20;99.90
23815;DHT22;12088;53.078;8.720;2023-04-01T08:40:59;11.10;99.90
23815;DHT22;12088;53.078;8.720;2023-04-01T08:46:34;11.10;99.90
23815;DHT22;12088;53.078;8.720;2023-04-01T08:55:03;11.40;99.90
23815;DHT22;12088;53.078;8.720;2023-04-01T08:57:45;11.60;99.90
23815;DHT22;12088;53.078;8.720;2023-04-01T09:00:32;11.80;99.90
23815;DHT22;12088;53.078;8.720;2023-04-01T09:03:55;12.00;99.90
23815;DHT22;12088;53.078;8.720;2023-04-01T09:06:24;12.30;99.90
23815;DHT22;12088;53.078;8.720;2023-04-01T09:17:36;12.60;99.90
23815;DHT22;12088;53.078;8.720;2023-04-01T09:32:13;11.60;99.90
23815;DHT22;12088;53.078;8.720;2023-04-01T09:34:53;11.70;99.90
23815;DHT22;12088;53.078;8.720;2023-04-01T09:40:09;12.00;99.90
23815;DHT22;12088;53.078;8.720;2023-04-01T09:42:43;12.20;99.90
23815;DHT22;12088;53.078;8.720;2023-04-01T09:45:40;12.00;99.90
23815;DHT22;12088;53.078;8.720;2023-04-01T09:48:49;12.30;99.90
23815;DHT22;12088;53.078;8.720;2023-04-01T10:14:15;12.80;99.90
23815;DHT22;12088;53.078;8.720;2023-04-01T10:30:42;10.60;99.90
23815;DHT22;12088;53.078;8.720;2023-04-01T10:34:24;10.30;99.90
23815;DHT22;12088;53.078;8.720;2023-04-01T10:36:41;10.10;99.90
23815;DHT22;12088;53.078;8.720;2023-04-01T10:50:53;9.90;99.90
23815;DHT22;12088;53.078;8.720;2023-04-01T11:04:33;9.60;99.90
23815;DHT22;12088;53.078;8.720;2023-04-01T11:28:55;9.70;99.90
23815;DHT22;12088;53.078;8.720;2023-04-01T11:34:09;9.60;99.90
23815;DHT22;12088;53.078;8.720;2023-04-01T11:45:01;9.40;99.90
23815;DHT22;12088;53.078;8.720;2023-04-01T11:47:47;9.40;99.90
23815;DHT22;12088;53.078;8.720;2023-04-01T11:50:31;9.40;99.90
23815;DHT22;12088;53.078;8.720;2023-04-01T11:55:47;9.20;99.90
23815;DHT22;12088;53.078;8.720;2023-04-01T12:01:34;9.00;99.90
23815;DHT22;12088;53.078;8.720;2023-04-01T12:04:34;9.00;99.90
23815;DHT22;12088;53.078;8.720;2023-04-01T12:07:15;9.20;99.90
23815;DHT22;12088;53.078;8.720;2023-04-01T12:15:33;9.20;99.90
23815;DHT22;12088;53.078;8.720;2023-04-01T12:18:17;9.20;99.90
23815;DHT22;12088;53.078;8.720;2023-04-01T12:23:37;9.50;99.90
23815;DHT22;12088;53.078;8.720;2023-04-01T12:32:14;9.90;99.90
23815;DHT22;12088;53.078;8.720;2023-04-01T12:37:46;10.00;99.90
23815;DHT22;12088;53.078;8.720;2023-04-01T12:46:13;9.50;99.90
23815;DHT22;12088;53.078;8.720;2023-04-01T12:54:22;9.40;99.90
23815;DHT22;12088;53.078;8.720;2023-04-01T13:05:15;9.60;99.90
23815;DHT22;12088;53.078;8.720;2023-04-01T13:08:08;9.50;99.90
23815;DHT22;12088;53.078;8.720;2023-04-01T13:11:02;9.40;99.90
23815;DHT22;12088;53.078;8.720;2023-04-01T13:14:05;9.30;99.90
23815;DHT22;12088;53.078;8.720;2023-04-01T13:16:40;9.20;99.90
23815;DHT22;12088;53.078;8.720;2023-04-01T13:24:51;9.00;99.90
23815;DHT22;12088;53.078;8.720;2023-04-01T13:27:44;9.00;99.90
23815;DHT22;12088;53.078;8.720;2023-04-01T13:46:45;8.90;99.90
23815;DHT22;12088;53.078;8.720;2023-04-01T13:52:31;8.80;99.90
23815;DHT22;12088;53.078;8.720;2023-04-01T13:55:21;8.70;99.90
23815;DHT22;12088;53.078;8.720;2023-04-01T13:58:00;8.70;99.90
23815;DHT22;12088;53.078;8.720;2023-04-01T14:00:32;8.70;99.90
23815;DHT22;12088;53.078;8.720;2023-04-01T14:03:24;8.60;99.90
23815;DHT22;12088;53.078;8.720;2023-04-01T14:06:23;8.60;99.90
23815;DHT22;12088;53.078;8.720;2023-04-01T14:14:52;8.40;99.90
23815;DHT22;12088;53.078;8.720;2023-04-01T14:20:41;8.30;99.90
23815;DHT22;12088;53.078;8.720;2023-04-01T14:26:35;8.30;99.90
23815;DHT22;12088;53.078;8.720;2023-04-01T14:29:18;8.30;99.90
23815;DHT22;12088;53.078;8.720;2023-04-01T14:34:50;8.10;99.90
23815;DHT22;12088;53.078;8.720;2023-04-01T14:45:40;7.90;99.90
23815;DHT22;12088;53.078;8.720;2023-04-01T14:48:25;7.90;99.90
23815;DHT22;12088;53.078;8.720;2023-04-01T14:50:54;7.80;99.90
23815;DHT22;12088;53.078;8.720;2023-04-01T14:53:27;7.80;99.90
23815;DHT22;12088;53.078;8.720;2023-04-01T14:56:02;7.80;99.90
23815;DHT22;12088;53.078;8.720;2023-04-01T14:58:45;7.80;99.90
23815;DHT22;12088;53.078;8.720;2023-04-01T15:04:02;7.80;99.90
23815;DHT22;12088;53.078;8.720;2023-04-01T15:06:43;7.70;99.90
23815;DHT22;12088;53.078;8.720;2023-04-01T15:18:07;7.70;99.90
23815;DHT22;12088;53.078;8.720;2023-04-01T15:20:43;7.80;99.90
23815;DHT22;12088;53.078;8.720;2023-04-01T15:23:35;7.70;99.90
23815;DHT22;12088;53.078;8.720;2023-04-01T15:26:19;7.60;99.90
23815;DHT22;12088;53.078;8.720;2023-04-01T15:31:50;7.60;99.90
23815;DHT22;12088;53.078;8.720;2023-04-01T15:34:42;7.50;99.90
23815;DHT22;12088;53.078;8.720;2023-04-01T15:45:50;7.50;99.90
23815;DHT22;12088;53.078;8.720;2023-04-01T15:51:16;7.40;99.90
23815;DHT22;12088;53.078;8.720;2023-04-01T15:57:08;7.50;99.90
23815;DHT22;12088;53.078;8.720;2023-04-01T16:04:46;7.30;99.90
23815;DHT22;12088;53.078;8.720;2023-04-01T16:10:38;7.10;99.90
23815;DHT22;12088;53.078;8.720;2023-04-01T16:13:35;7.00;99.90
23815;DHT22;12088;53.078;8.720;2023-04-01T16:16:19;7.00;99.90
23815;DHT22;12088;53.078;8.720;2023-04-01T16:19:01;7.00;99.90
23815;DHT22;12088;53.078;8.720;2023-04-01T16:21:48;6.90;99.90
23815;DHT22;12088;53.078;8.720;2023-04-01T16:33:04;6.80;99.90
23815;DHT22;12088;53.078;8.720;2023-04-01T16:35:53;6.80;99.90
23815;DHT22;12088;53.078;8.720;2023-04-01T16:41:05;6.80;99.90
23815;DHT22;12088;53.078;8.720;2023-04-01T16:46:26;6.70;99.90
23815;DHT22;12088;53.078;8.720;2023-04-01T16:54:51;6.60;99.90
23815;DHT22;12088;53.078;8.720;2023-04-01T17:00:27;6.60;99.90
23815;DHT22;12088;53.078;8.720;2023-04-01T17:11:44;6.70;99.90
23815;DHT22;12088;53.078;8.720;2023-04-01T17:19:56;6.70;99.90
23815;DHT22;12088;53.078;8.720;2023-04-01T17:25:20;6.50;99.90
23815;DHT22;12088;53.078;8.720;2023-04-01T17:33:59;6.40;99.90
23815;DHT22;12088;53.078;8.720;2023-04-01T17:36:44;6.40;99.90
23815;DHT22;12088;53.078;8.720;2023-04-01T17:39:33;6.40;99.90
23815;DHT22;12088;53.078;8.720;2023-04-01T17:42:11;6.40;99.90
23815;DHT22;12088;53.078;8.720;2023-04-01T17:45:04;6.40;99.90
23815;DHT22;12088;53.078;8.720;2023-04-01T17:58:45;6.30;99.90
23815;DHT22;12088;53.078;8.720;2023-04-01T18:01:15;6.20;99.90
23815;DHT22;12088;53.078;8.720;2023-04-01T18:06:19;6.20;99.90
23815;DHT22;12088;53.078;8.720;2023-04-01T18:09:03;6.20;99.90
23815;DHT22;12088;53.078;8.720;2023-04-01T18:14:44;6.10;99.90
23815;DHT22;12088;53.078;8.720;2023-04-01T18:17:20;6.10;99.90
23815;DHT22;12088;53.078;8.720;2023-04-01T18:23:02;6.10;99.90
23815;DHT22;12088;53.078;8.720;2023-04-01T18:25:40;6.10;99.90
23815;DHT22;12088;53.078;8.720;2023-04-01T18:31:04;6.00;99.90
23815;DHT22;12088;53.078;8.720;2023-04-01T18:34:02;5.90;99.90
23815;DHT22;12088;53.078;8.720;2023-04-01T18:36:41;5.90;99.90
23815;DHT22;12088;53.078;8.720;2023-04-01T18:39:18;5.90;99.90
23815;DHT22;12088;53.078;8.720;2023-04-01T18:47:22;5.90;99.90
23815;DHT22;12088;53.078;8.720;2023-04-01T18:52:58;5.90;99.90
23815;DHT22;12088;53.078;8.720;2023-04-01T18:55:40;5.90;99.90
23815;DHT22;12088;53.078;8.720;2023-04-01T18:58:18;5.80;99.90
23815;DHT22;12088;53.078;8.720;2023-04-01T19:00:54;5.80;99.90
23815;DHT22;12088;53.078;8.720;2023-04-01T19:03:55;5.90;99.90
23815;DHT22;12088;53.078;8.720;2023-04-01T19:06:52;5.90;99.90
23815;DHT22;12088;53.078;8.720;2023-04-01T19:09:32;5.80;99.90
23815;DHT22;12088;53.078;8.720;2023-04-01T19:12:32;5.80;99.90
23815;DHT22;12088;53.078;8.720;2023-04-01T19:20:47;5.70;99.90
23815;DHT22;12088;53.078;8.720;2023-04-01T19:24:06;5.70;99.90
23815;DHT22;12088;53.078;8.720;2023-04-01T19:26:40;5.70;99.90
23815;DHT22;12088;53.078;8.720;2023-04-01T19:38:28;5.60;99.90
23815;DHT22;12088;53.078;8.720;2023-04-01T19:44:20;5.70;99.90
23815;DHT22;12088;53.078;8.720;2023-04-01T19:46:55;5.60;99.90
23815;DHT22;12088;53.078;8.720;2023-04-01T19:49:29;5.50;99.90
23815;DHT22;12088;53.078;8.720;2023-04-01T19:52:18;5.50;99.90
23815;DHT22;12088;53.078;8.720;2023-04-01T19:55:03;5.50;99.90
23815;DHT22;12088;53.078;8.720;2023-04-01T20:00:49;5.50;99.90
23815;DHT22;12088;53.078;8.720;2023-04-01T20:03:46;5.50;99.90
23815;DHT22;12088;53.078;8.720;2023-04-01T20:06:20;5.50;99.90
23815;DHT22;12088;53.078;8.720;2023-04-01T20:12:18;5.40;99.90
23815;DHT22;12088;53.078;8.720;2023-04-01T20:14:50;5.40;99.90
23815;DHT22;12088;53.078;8.720;2023-04-01T20:17:23;5.40;99.90
23815;DHT22;12088;53.078;8.720;2023-04-01T20:25:16;5.40;99.90
23815;DHT22;12088;53.078;8.720;2023-04-01T20:28:00;5.40;99.90
23815;DHT22;12088;53.078;8.720;2023-04-01T20:33:52;5.30;99.90
23815;DHT22;12088;53.078;8.720;2023-04-01T20:36:27;5.30;99.90
23815;DHT22;12088;53.078;8.720;2023-04-01T20:44:31;5.20;99.90
23815;DHT22;12088;53.078;8.720;2023-04-01T20:50:15;5.20;99.90
23815;DHT22;12088;53.078;8.720;2023-04-01T20:53:01;5.20;99.90
23815;DHT22;12088;53.078;8.720;2023-04-01T20:55:51;5.20;99.90
23815;DHT22;12088;53.078;8.720;2023-04-01T21:03:58;5.10;99.90
23815;DHT22;12088;53.078;8.720;2023-04-01T21:09:29;5.10;99.90
23815;DHT22;12088;53.078;8.720;2023-04-01T21:15:33;5.00;99.90
23815;DHT22;12088;53.078;8.720;2023-04-01T21:21:47;5.00;99.90
23815;DHT22;12088;53.078;8.720;2023-04-01T21:29:57;4.90;99.90
23815;DHT22;12088;53.078;8.720;2023-04-01T21:35:44;4.80;99.90
23815;DHT22;12088;53.078;8.720;2023-04-01T21:38:34;4.80;99.90
23815;DHT22;12088;53.078;8.720;2023-04-01T21:41:03;4.80;99.90
23815;DHT22;12088;53.078;8.720;2023-04-01T21:55:08;4.60;99.90
23815;DHT22;12088;53.078;8.720;2023-04-01T22:03:59;4.50;99.90
23815;DHT22;12088;53.078;8.720;2023-04-01T22:06:50;4.50;99.90
23815;DHT22;12088;53.078;8.720;2023-04-01T22:09:29;4.50;99.90
23815;DHT22;12088;53.078;8.720;2023-04-01T22:12:20;4.50;99.90
23815;DHT22;12088;53.078;8.720;2023-04-01T22:17:50;4.50;99.90
23815;DHT22;12088;53.078;8.720;2023-04-01T22:23:29;4.20;99.90
23815;DHT22;12088;53.078;8.720;2023-04-01T22:26:05;4.10;99.90
23815;DHT22;12088;53.078;8.720;2023-04-01T22:28:59;4.00;99.90
23815;DHT22;12088;53.078;8.720;2023-04-01T22:31:39;3.90;99.90
23815;DHT22;12088;53.078;8.720;2023-04-01T22:34:08;3.90;99.90
23815;DHT22;12088;53.078;8.720;2023-04-01T22:36:59;3.80;99.90
23815;DHT22;12088;53.078;8.720;2023-04-01T22:42:34;3.70;99.90
23815;DHT22;12088;53.078;8.720;2023-04-01T22:45:05;3.50;99.90
23815;DHT22;12088;53.078;8.720;2023-04-01T22:48:03;3.50;99.90
23815;DHT22;12088;53.078;8.720;2023-04-01T22:53:42;3.30;99.90
23815;DHT22;12088;53.078;8.720;2023-04-01T22:56:18;3.30;99.90
23815;DHT22;12088;53.078;8.720;2023-04-01T22:58:50;3.20;99.90
23815;DHT22;12088;53.078;8.720;2023-04-01T23:01:24;3.20;99.90
23815;DHT22;12088;53.078;8.720;2023-04-01T23:03:51;3.10;99.90
23815;DHT22;12088;53.078;8.720;2023-04-01T23:06:22;3.10;99.90
23815;DHT22;12088;53.078;8.720;2023-04-01T23:09:04;3.10;99.90
23815;DHT22;12088;53.078;8.720;2023-04-01T23:11:52;3.00;99.90
23815;DHT22;12088;53.078;8.720;2023-04-01T23:17:09;2.90;99.90
23815;DHT22;12088;53.078;8.720;2023-04-01T23:19:40;2.90;99.90
23815;DHT22;12088;53.078;8.720;2023-04-01T23:35:52;2.70;99.90
23815;DHT22;12088;53.078;8.720;2023-04-01T23:38:23;2.70;99.90
23815;DHT22;12088;53.078;8.720;2023-04-01T23:40:51;2.80;99.90
23815;DHT22;12088;53.078;8.720;2023-04-01T23:43:31;2.80;99.90
23815;DHT22;12088;53.078;8.720;2023-04-01T23:46:01;2.70;99.90
23815;DHT22;12088;53.078;8.720;2023-04-01T23:48:41;2.60;99.90
23815;DHT22;12088;53.078;8.720;2023-04-01T23:51:18;2.60;99.90
23815;DHT22;12088;53.078;8.720;2023-04-01T23:53:47;2.60;99.90
23815;DHT22;12088;53.078;8.720;2023-04-01T23:56:16;2.70;99.90
23815;DHT22;12088;53.078;8.720;2023-04-01T23:58:44;2.60;99.90
